sensor_id;sensor_type;location;lat;lon;timestamp;pressure;altitude;pressure_sealevel;temperature;humidity
49055;BME280;35405;52.344;14.530;2022-07-29T04:49:05;101186.97;;;14.52;100.00
49055;BME280;35405;52.344;14.530;2022-07-29T04:51:31;101186.38;;;14.55;100.00
49055;BME280;35405;52.344;14.530;2022-07-29T04:53:56;101183.44;;;14.66;100.00
49055;BME280;35405;52.344;14.530;2022-07-29T04:56:21;101185.75;;;14.58;100.00
49055;BME280;35405;52.344;14.530;2022-07-29T04:58:47;101196.69;;;14.58;100.00
49055;BME280;35405;52.344;14.530;2022-07-29T05:01:13;101186.56;;;14.59;100.00
49055;BME280;35405;52.344;14.530;2022-07-29T05:03:39;101194.16;;;14.48;100.00
49055;BME280;35405;52.344;14.530;2022-07-29T05:06:04;101183.22;;;14.48;100.00
49055;BME280;35405;52.344;14.530;2022-07-29T05:11:20;101175.31;;;14.74;100.00
49055;BME280;35405;52.344;14.530;2022-07-29T05:13:45;101165.00;;;14.94;100.00
49055;BME280;35405;52.344;14.530;2022-07-29T05:22:26;101176.13;;;14.97;100.00
49055;BME280;35405;52.344;14.530;2022-07-29T05:24:51;101175.16;;;14.79;100.00
49055;BME280;35405;52.344;14.530;2022-07-29T05:27:26;101173.38;;;14.61;100.00
49055;BME280;35405;52.344;14.530;2022-07-29T05:29:51;101176.31;;;14.64;100.00
49055;BME280;35405;52.344;14.530;2022-07-29T05:32:19;101176.31;;;14.64;100.00
49055;BME280;35405;52.344;14.530;2022-07-29T05:34:44;101183.81;;;14.59;100.00
49055;BME280;35405;52.344;14.530;2022-07-29T05:37:10;101181.06;;;14.73;100.00
49055;BME280;35405;52.344;14.530;2022-07-29T05:39:35;101179.13;;;14.87;100.00
49055;BME280;35405;52.344;14.530;2022-07-29T05:42:08;101180.28;;;15.08;100.00
49055;BME280;35405;52.344;14.530;2022-07-29T05:44:35;101179.28;;;15.27;100.00
49055;BME280;35405;52.344;14.530;2022-07-29T05:47:01;101181.47;;;15.39;100.00
49055;BME280;35405;52.344;14.530;2022-07-29T05:49:28;101173.59;;;15.46;100.00
49055;BME280;35405;52.344;14.530;2022-07-29T05:51:54;101180.16;;;15.59;100.00
49055;BME280;35405;52.344;14.530;2022-07-29T05:54:19;101172.00;;;15.67;100.00
49055;BME280;35405;52.344;14.530;2022-07-29T05:56:44;101169.19;;;15.59;100.00
49055;BME280;35405;52.344;14.530;2022-07-29T05:59:10;101171.59;;;15.60;100.00
49055;BME280;35405;52.344;14.530;2022-07-29T06:01:35;101172.44;;;15.83;100.00
49055;BME280;35405;52.344;14.530;2022-07-29T06:04:04;101172.91;;;15.85;100.00
49055;BME280;35405;52.344;14.530;2022-07-29T06:06:29;101179.28;;;15.72;100.00
49055;BME280;35405;52.344;14.530;2022-07-29T06:08:54;101174.50;;;15.77;100.00
49055;BME280;35405;52.344;14.530;2022-07-29T06:11:20;101184.25;;;15.92;100.00
49055;BME280;35405;52.344;14.530;2022-07-29T06:13:45;101173.34;;;16.10;100.00
49055;BME280;35405;52.344;14.530;2022-07-29T06:16:10;101171.56;;;16.05;100.00
49055;BME280;35405;52.344;14.530;2022-07-29T06:18:35;101180.13;;;16.04;100.00
49055;BME280;35405;52.344;14.530;2022-07-29T06:21:01;101171.22;;;15.98;100.00
49055;BME280;35405;52.344;14.530;2022-07-29T06:23:26;101181.72;;;16.05;100.00
49055;BME280;35405;52.344;14.530;2022-07-29T06:25:51;101172.09;;;16.16;100.00
49055;BME280;35405;52.344;14.530;2022-07-29T06:28:17;101178.22;;;16.21;100.00
49055;BME280;35405;52.344;14.530;2022-07-29T06:30:42;101180.72;;;16.40;100.00
49055;BME280;35405;52.344;14.530;2022-07-29T06:33:07;101187.84;;;16.50;100.00
49055;BME280;35405;52.344;14.530;2022-07-29T06:35:33;101188.19;;;16.66;100.00
49055;BME280;35405;52.344;14.530;2022-07-29T06:38:00;101185.63;;;16.61;100.00
49055;BME280;35405;52.344;14.530;2022-07-29T06:40:25;101192.41;;;16.72;100.00
49055;BME280;35405;52.344;14.530;2022-07-29T06:43:09;101186.81;;;16.77;100.00
49055;BME280;35405;52.344;14.530;2022-07-29T06:45:35;101195.94;;;16.55;100.00
49055;BME280;35405;52.344;14.530;2022-07-29T06:48:01;101192.59;;;16.67;100.00
49055;BME280;35405;52.344;14.530;2022-07-29T06:50:26;101195.47;;;16.62;100.00
49055;BME280;35405;52.344;14.530;2022-07-29T06:52:51;101194.00;;;16.56;100.00
49055;BME280;35405;52.344;14.530;2022-07-29T06:55:16;101197.53;;;16.48;100.00
49055;BME280;35405;52.344;14.530;2022-07-29T06:57:44;101200.13;;;16.53;100.00
49055;BME280;35405;52.344;14.530;2022-07-29T07:00:09;101193.88;;;16.61;100.00
49055;BME280;35405;52.344;14.530;2022-07-29T07:02:35;101192.88;;;16.57;100.00
49055;BME280;35405;52.344;14.530;2022-07-29T07:05:00;101181.97;;;16.83;100.00
49055;BME280;35405;52.344;14.530;2022-07-29T07:07:25;101182.47;;;16.85;100.00
49055;BME280;35405;52.344;14.530;2022-07-29T07:09:51;101186.16;;;16.80;100.00
49055;BME280;35405;52.344;14.530;2022-07-29T07:15:03;101178.75;;;17.07;100.00
49055;BME280;35405;52.344;14.530;2022-07-29T07:17:29;101181.81;;;17.05;100.00
49055;BME280;35405;52.344;14.530;2022-07-29T07:19:54;101188.94;;;16.98;100.00
49055;BME280;35405;52.344;14.530;2022-07-29T07:22:19;101184.56;;;16.97;100.00
49055;BME280;35405;52.344;14.530;2022-07-29T07:24:44;101186.19;;;17.15;100.00
49055;BME280;35405;52.344;14.530;2022-07-29T07:27:16;101191.69;;;17.15;100.00
49055;BME280;35405;52.344;14.530;2022-07-29T07:29:41;101191.00;;;17.35;100.00
49055;BME280;35405;52.344;14.530;2022-07-29T07:32:07;101185.66;;;17.48;100.00
49055;BME280;35405;52.344;14.530;2022-07-29T07:34:32;101179.03;;;17.57;100.00
49055;BME280;35405;52.344;14.530;2022-07-29T07:36:57;101189.84;;;17.63;100.00
49055;BME280;35405;52.344;14.530;2022-07-29T07:39:23;101195.38;;;18.18;100.00
49055;BME280;35405;52.344;14.530;2022-07-29T07:41:48;101197.53;;;18.72;100.00
49055;BME280;35405;52.344;14.530;2022-07-29T07:44:13;101187.00;;;18.95;100.00
49055;BME280;35405;52.344;14.530;2022-07-29T07:46:38;101190.03;;;18.81;100.00
49055;BME280;35405;52.344;14.530;2022-07-29T07:49:04;101183.44;;;19.15;100.00
49055;BME280;35405;52.344;14.530;2022-07-29T07:51:29;101177.38;;;19.01;100.00
49055;BME280;35405;52.344;14.530;2022-07-29T07:53:54;101182.16;;;18.92;100.00
49055;BME280;35405;52.344;14.530;2022-07-29T07:56:20;101176.13;;;18.78;100.00
49055;BME280;35405;52.344;14.530;2022-07-29T07:58:45;101182.84;;;19.10;100.00
49055;BME280;35405;52.344;14.530;2022-07-29T08:01:10;101175.91;;;19.04;100.00
49055;BME280;35405;52.344;14.530;2022-07-29T08:03:36;101169.81;;;19.31;100.00
49055;BME280;35405;52.344;14.530;2022-07-29T08:06:02;101172.97;;;19.42;100.00
49055;BME280;35405;52.344;14.530;2022-07-29T08:08:27;101170.22;;;19.42;100.00
49055;BME280;35405;52.344;14.530;2022-07-29T08:10:52;101160.25;;;19.50;100.00
49055;BME280;35405;52.344;14.530;2022-07-29T08:13:22;101167.13;;;19.77;100.00
49055;BME280;35405;52.344;14.530;2022-07-29T08:15:47;101171.19;;;19.92;100.00
49055;BME280;35405;52.344;14.530;2022-07-29T08:18:22;101166.22;;;20.09;100.00
49055;BME280;35405;52.344;14.530;2022-07-29T08:20:47;101166.69;;;19.99;100.00
49055;BME280;35405;52.344;14.530;2022-07-29T08:23:12;101165.44;;;20.09;100.00
49055;BME280;35405;52.344;14.530;2022-07-29T08:25:38;101168.78;;;20.27;100.00
49055;BME280;35405;52.344;14.530;2022-07-29T08:28:04;101163.72;;;20.66;100.00
49055;BME280;35405;52.344;14.530;2022-07-29T08:30:29;101162.38;;;21.00;100.00
49055;BME280;35405;52.344;14.530;2022-07-29T08:32:55;101169.06;;;21.55;100.00
49055;BME280;35405;52.344;14.530;2022-07-29T08:35:20;101158.22;;;21.94;100.00
49055;BME280;35405;52.344;14.530;2022-07-29T08:37:46;101169.53;;;21.73;100.00
49055;BME280;35405;52.344;14.530;2022-07-29T08:40:11;101166.13;;;21.48;100.00
49055;BME280;35405;52.344;14.530;2022-07-29T08:42:37;101170.50;;;21.49;100.00
49055;BME280;35405;52.344;14.530;2022-07-29T08:45:03;101164.53;;;21.35;100.00
49055;BME280;35405;52.344;14.530;2022-07-29T08:47:31;101160.56;;;21.20;100.00
49055;BME280;35405;52.344;14.530;2022-07-29T08:49:58;101160.97;;;21.34;100.00
49055;BME280;35405;52.344;14.530;2022-07-29T08:52:25;101161.41;;;21.64;100.00
49055;BME280;35405;52.344;14.530;2022-07-29T08:54:51;101166.53;;;21.94;100.00
49055;BME280;35405;52.344;14.530;2022-07-29T08:57:17;101162.88;;;22.22;100.00
49055;BME280;35405;52.344;14.530;2022-07-29T08:59:43;101169.47;;;22.33;100.00
49055;BME280;35405;52.344;14.530;2022-07-29T09:02:12;101169.06;;;22.66;100.00
49055;BME280;35405;52.344;14.530;2022-07-29T09:04:44;101163.97;;;22.88;100.00
49055;BME280;35405;52.344;14.530;2022-07-29T09:07:18;101163.34;;;23.14;100.00
49055;BME280;35405;52.344;14.530;2022-07-29T09:09:46;101159.88;;;23.40;100.00
49055;BME280;35405;52.344;14.530;2022-07-29T09:12:18;101161.56;;;23.87;100.00
49055;BME280;35405;52.344;14.530;2022-07-29T09:17:41;101148.78;;;24.05;100.00
49055;BME280;35405;52.344;14.530;2022-07-29T09:20:26;101145.03;;;24.44;96.49
49055;BME280;35405;52.344;14.530;2022-07-29T09:23:20;101145.75;;;24.67;93.57
49055;BME280;35405;52.344;14.530;2022-07-29T09:25:45;101144.63;;;24.45;94.46
49055;BME280;35405;52.344;14.530;2022-07-29T09:28:14;101142.91;;;24.37;95.16
49055;BME280;35405;52.344;14.530;2022-07-29T09:36:56;101137.25;;;25.17;86.01
49055;BME280;35405;52.344;14.530;2022-07-29T09:42:33;101130.81;;;25.13;85.82
49055;BME280;35405;52.344;14.530;2022-07-29T09:45:00;101128.06;;;25.50;86.60
49055;BME280;35405;52.344;14.530;2022-07-29T09:50:36;101120.50;;;25.91;87.96
49055;BME280;35405;52.344;14.530;2022-07-29T09:53:01;101112.97;;;25.99;87.22
49055;BME280;35405;52.344;14.530;2022-07-29T09:55:27;101115.19;;;26.27;86.24
49055;BME280;35405;52.344;14.530;2022-07-29T09:57:52;101113.66;;;26.40;85.13
49055;BME280;35405;52.344;14.530;2022-07-29T10:00:19;101112.06;;;26.39;84.52
49055;BME280;35405;52.344;14.530;2022-07-29T10:02:45;101103.94;;;26.13;85.61
49055;BME280;35405;52.344;14.530;2022-07-29T10:07:49;101100.59;;;25.48;86.95
49055;BME280;35405;52.344;14.530;2022-07-29T10:10:19;101102.97;;;25.46;89.24
49055;BME280;35405;52.344;14.530;2022-07-29T10:12:54;101092.91;;;25.35;88.73
49055;BME280;35405;52.344;14.530;2022-07-29T10:15:24;101094.84;;;25.30;90.02
49055;BME280;35405;52.344;14.530;2022-07-29T10:17:50;101092.88;;;25.31;89.87
49055;BME280;35405;52.344;14.530;2022-07-29T10:20:16;101097.22;;;25.28;88.39
49055;BME280;35405;52.344;14.530;2022-07-29T10:22:42;101097.00;;;25.10;88.75
49055;BME280;35405;52.344;14.530;2022-07-29T10:25:09;101094.28;;;25.14;89.23
49055;BME280;35405;52.344;14.530;2022-07-29T10:27:35;101089.56;;;25.18;89.08
49055;BME280;35405;52.344;14.530;2022-07-29T10:30:04;101091.34;;;25.37;88.15
49055;BME280;35405;52.344;14.530;2022-07-29T10:32:35;101093.28;;;25.81;88.92
49055;BME280;35405;52.344;14.530;2022-07-29T10:43:42;101097.59;;;26.23;83.15
49055;BME280;35405;52.344;14.530;2022-07-29T10:46:08;101100.91;;;26.36;82.77
49055;BME280;35405;52.344;14.530;2022-07-29T10:48:35;101099.91;;;26.73;81.90
49055;BME280;35405;52.344;14.530;2022-07-29T10:51:03;101089.19;;;26.85;80.04
49055;BME280;35405;52.344;14.530;2022-07-29T10:53:45;101092.75;;;26.75;80.21
49055;BME280;35405;52.344;14.530;2022-07-29T10:59:22;101087.34;;;26.41;80.03
49055;BME280;35405;52.344;14.530;2022-07-29T11:01:34;101086.50;;;26.30;80.25
49055;BME280;35405;52.344;14.530;2022-07-29T11:09:41;101074.59;;;26.40;81.52
49055;BME280;35405;52.344;14.530;2022-07-29T11:17:16;101064.28;;;26.48;78.51
49055;BME280;35405;52.344;14.530;2022-07-29T11:19:42;101065.88;;;26.42;80.66
49055;BME280;35405;52.344;14.530;2022-07-29T11:22:08;101074.16;;;26.31;80.88
49055;BME280;35405;52.344;14.530;2022-07-29T11:24:33;101069.28;;;26.14;78.47
49055;BME280;35405;52.344;14.530;2022-07-29T11:27:12;101068.59;;;26.38;81.05
49055;BME280;35405;52.344;14.530;2022-07-29T11:29:48;101068.66;;;26.45;77.57
49055;BME280;35405;52.344;14.530;2022-07-29T11:32:15;101070.63;;;26.41;77.82
49055;BME280;35405;52.344;14.530;2022-07-29T11:34:42;101066.34;;;26.51;73.06
49055;BME280;35405;52.344;14.530;2022-07-29T11:47:21;101061.19;;;26.60;67.88
49055;BME280;35405;52.344;14.530;2022-07-29T11:49:47;101071.75;;;27.28;62.92
49055;BME280;35405;52.344;14.530;2022-07-29T11:52:13;101058.97;;;27.16;61.45
49055;BME280;35405;52.344;14.530;2022-07-29T11:54:38;101054.94;;;27.13;58.97
49055;BME280;35405;52.344;14.530;2022-07-29T11:57:07;101055.03;;;27.46;57.61
49055;BME280;35405;52.344;14.530;2022-07-29T11:59:32;101047.44;;;27.57;58.96
49055;BME280;35405;52.344;14.530;2022-07-29T12:02:03;101057.84;;;27.81;59.74
49055;BME280;35405;52.344;14.530;2022-07-29T12:04:28;101047.03;;;27.73;59.80
49055;BME280;35405;52.344;14.530;2022-07-29T12:06:55;101051.84;;;27.69;60.33
49055;BME280;35405;52.344;14.530;2022-07-29T12:09:21;101041.88;;;27.93;59.02
49055;BME280;35405;52.344;14.530;2022-07-29T12:11:47;101046.22;;;28.08;60.50
49055;BME280;35405;52.344;14.530;2022-07-29T12:14:28;101041.88;;;27.71;58.55
49055;BME280;35405;52.344;14.530;2022-07-29T12:16:54;101045.78;;;27.06;60.96
49055;BME280;35405;52.344;14.530;2022-07-29T12:19:19;101050.09;;;26.85;59.85
49055;BME280;35405;52.344;14.530;2022-07-29T12:21:48;101040.16;;;26.84;60.30
49055;BME280;35405;52.344;14.530;2022-07-29T12:24:13;101036.66;;;27.27;59.82
49055;BME280;35405;52.344;14.530;2022-07-29T12:26:48;101037.88;;;27.47;57.27
49055;BME280;35405;52.344;14.530;2022-07-29T12:29:17;101037.06;;;27.61;56.52
49055;BME280;35405;52.344;14.530;2022-07-29T12:31:43;101037.84;;;27.44;54.75
49055;BME280;35405;52.344;14.530;2022-07-29T12:34:09;101040.59;;;27.08;58.85
49055;BME280;35405;52.344;14.530;2022-07-29T12:36:35;101033.06;;;27.33;54.49
49055;BME280;35405;52.344;14.530;2022-07-29T12:39:00;101022.31;;;27.32;55.69
49055;BME280;35405;52.344;14.530;2022-07-29T12:41:27;101027.88;;;27.18;54.79
49055;BME280;35405;52.344;14.530;2022-07-29T12:43:53;101033.72;;;26.66;57.92
49055;BME280;35405;52.344;14.530;2022-07-29T12:46:19;101028.50;;;26.57;59.63
49055;BME280;35405;52.344;14.530;2022-07-29T12:48:44;101028.59;;;27.00;58.58
49055;BME280;35405;52.344;14.530;2022-07-29T12:51:10;101032.66;;;27.24;54.11
49055;BME280;35405;52.344;14.530;2022-07-29T12:53:36;101028.22;;;27.09;54.52
49055;BME280;35405;52.344;14.530;2022-07-29T12:56:02;101023.88;;;27.22;56.12
49055;BME280;35405;52.344;14.530;2022-07-29T12:58:29;101024.66;;;27.12;52.41
49055;BME280;35405;52.344;14.530;2022-07-29T13:00:59;101012.63;;;26.83;55.05
49055;BME280;35405;52.344;14.530;2022-07-29T13:03:24;101021.81;;;26.90;56.93
49055;BME280;35405;52.344;14.530;2022-07-29T13:05:49;101019.06;;;27.05;54.79
49055;BME280;35405;52.344;14.530;2022-07-29T13:08:16;101011.44;;;26.98;55.55
49055;BME280;35405;52.344;14.530;2022-07-29T13:10:41;101006.19;;;26.57;57.28
49055;BME280;35405;52.344;14.530;2022-07-29T13:13:11;101015.34;;;26.65;58.21
49055;BME280;35405;52.344;14.530;2022-07-29T13:15:40;101013.81;;;26.78;56.48
49055;BME280;35405;52.344;14.530;2022-07-29T13:20:51;100999.09;;;27.03;56.18
49055;BME280;35405;52.344;14.530;2022-07-29T13:23:19;100992.38;;;27.32;56.17
49055;BME280;35405;52.344;14.530;2022-07-29T13:25:44;100988.00;;;27.35;56.07
49055;BME280;35405;52.344;14.530;2022-07-29T13:28:10;101003.53;;;27.47;54.21
49055;BME280;35405;52.344;14.530;2022-07-29T13:30:36;100985.19;;;27.56;52.09
49055;BME280;35405;52.344;14.530;2022-07-29T13:33:02;100996.34;;;27.31;53.48
49055;BME280;35405;52.344;14.530;2022-07-29T13:35:27;101000.25;;;26.73;55.71
49055;BME280;35405;52.344;14.530;2022-07-29T13:37:54;100996.53;;;26.44;56.55
49055;BME280;35405;52.344;14.530;2022-07-29T13:40:19;100998.19;;;26.59;57.15
49055;BME280;35405;52.344;14.530;2022-07-29T13:42:45;100984.75;;;27.08;53.97
49055;BME280;35405;52.344;14.530;2022-07-29T13:45:10;100985.59;;;27.44;53.77
49055;BME280;35405;52.344;14.530;2022-07-29T13:47:36;100978.38;;;27.57;49.95
49055;BME280;35405;52.344;14.530;2022-07-29T13:50:01;100973.94;;;27.96;47.73
49055;BME280;35405;52.344;14.530;2022-07-29T13:52:27;100971.78;;;28.43;46.21
49055;BME280;35405;52.344;14.530;2022-07-29T13:54:52;100968.84;;;28.71;47.71
49055;BME280;35405;52.344;14.530;2022-07-29T13:57:18;100970.16;;;28.49;43.92
49055;BME280;35405;52.344;14.530;2022-07-29T13:59:44;100975.56;;;27.75;45.40
49055;BME280;35405;52.344;14.530;2022-07-29T14:02:09;100974.03;;;27.21;46.99
49055;BME280;35405;52.344;14.530;2022-07-29T14:04:35;100959.63;;;27.22;47.94
49055;BME280;35405;52.344;14.530;2022-07-29T14:07:03;100963.63;;;27.53;45.77
49055;BME280;35405;52.344;14.530;2022-07-29T14:09:29;100962.75;;;27.96;43.11
49055;BME280;35405;52.344;14.530;2022-07-29T14:11:54;100963.13;;;28.05;43.07
49055;BME280;35405;52.344;14.530;2022-07-29T14:14:20;100956.22;;;28.27;43.63
49055;BME280;35405;52.344;14.530;2022-07-29T14:16:45;100963.03;;;28.30;44.23
49055;BME280;35405;52.344;14.530;2022-07-29T14:19:10;100958.75;;;28.04;45.85
49055;BME280;35405;52.344;14.530;2022-07-29T14:21:36;100964.00;;;27.66;46.91
49055;BME280;35405;52.344;14.530;2022-07-29T14:24:01;100946.88;;;27.25;48.90
49055;BME280;35405;52.344;14.530;2022-07-29T14:26:27;100950.06;;;27.20;49.02
49055;BME280;35405;52.344;14.530;2022-07-29T14:28:52;100944.47;;;27.34;50.03
49055;BME280;35405;52.344;14.530;2022-07-29T14:31:17;100945.22;;;27.70;49.01
49055;BME280;35405;52.344;14.530;2022-07-29T14:33:43;100941.22;;;27.82;49.35
49055;BME280;35405;52.344;14.530;2022-07-29T14:36:08;100952.03;;;27.69;49.58
49055;BME280;35405;52.344;14.530;2022-07-29T14:38:34;100938.50;;;27.32;51.05
49055;BME280;35405;52.344;14.530;2022-07-29T14:40:59;100943.19;;;26.56;55.45
49055;BME280;35405;52.344;14.530;2022-07-29T14:43:25;100945.00;;;26.06;56.49
49055;BME280;35405;52.344;14.530;2022-07-29T14:45:50;100927.34;;;25.84;56.51
49055;BME280;35405;52.344;14.530;2022-07-29T14:48:15;100934.56;;;25.95;57.71
49055;BME280;35405;52.344;14.530;2022-07-29T14:50:41;100932.34;;;26.37;55.49
49055;BME280;35405;52.344;14.530;2022-07-29T14:53:06;100928.84;;;26.61;54.89
49055;BME280;35405;52.344;14.530;2022-07-29T14:55:34;100928.06;;;26.68;54.78
49055;BME280;35405;52.344;14.530;2022-07-29T14:58:00;100924.09;;;26.80;54.38
49055;BME280;35405;52.344;14.530;2022-07-29T15:00:25;100925.72;;;27.02;52.57
49055;BME280;35405;52.344;14.530;2022-07-29T15:02:51;100927.31;;;27.28;52.27
49055;BME280;35405;52.344;14.530;2022-07-29T15:05:16;100929.34;;;27.35;50.46
49055;BME280;35405;52.344;14.530;2022-07-29T15:07:41;100933.69;;;27.54;49.31
49055;BME280;35405;52.344;14.530;2022-07-29T15:10:07;100934.88;;;27.46;48.84
49055;BME280;35405;52.344;14.530;2022-07-29T15:12:32;100932.50;;;27.51;50.06
49055;BME280;35405;52.344;14.530;2022-07-29T15:14:58;100937.28;;;27.11;50.05
49055;BME280;35405;52.344;14.530;2022-07-29T15:17:23;100947.22;;;26.66;49.09
49055;BME280;35405;52.344;14.530;2022-07-29T15:19:49;100931.63;;;26.51;50.09
49055;BME280;35405;52.344;14.530;2022-07-29T15:22:14;100938.44;;;26.64;51.28
49055;BME280;35405;52.344;14.530;2022-07-29T15:24:39;100934.88;;;26.78;52.06
49055;BME280;35405;52.344;14.530;2022-07-29T15:27:05;100930.88;;;26.89;51.05
49055;BME280;35405;52.344;14.530;2022-07-29T15:29:30;100935.25;;;26.73;49.65
49055;BME280;35405;52.344;14.530;2022-07-29T15:31:55;100930.06;;;26.57;51.36
49055;BME280;35405;52.344;14.530;2022-07-29T15:34:21;100929.25;;;26.60;51.86
49055;BME280;35405;52.344;14.530;2022-07-29T15:36:48;100932.44;;;26.58;52.87
49055;BME280;35405;52.344;14.530;2022-07-29T15:39:13;100929.59;;;26.48;53.78
49055;BME280;35405;52.344;14.530;2022-07-29T15:41:38;100929.97;;;26.42;53.25
49055;BME280;35405;52.344;14.530;2022-07-29T15:44:03;100932.72;;;26.25;53.71
49055;BME280;35405;52.344;14.530;2022-07-29T15:46:29;100937.44;;;26.17;55.78
49055;BME280;35405;52.344;14.530;2022-07-29T15:49:13;100928.34;;;26.27;57.05
49055;BME280;35405;52.344;14.530;2022-07-29T15:51:38;100924.00;;;26.37;56.31
49055;BME280;35405;52.344;14.530;2022-07-29T15:54:03;100928.00;;;26.43;52.84
49055;BME280;35405;52.344;14.530;2022-07-29T15:56:29;100926.81;;;26.48;52.67
49055;BME280;35405;52.344;14.530;2022-07-29T15:58:54;100920.91;;;26.60;52.27
49055;BME280;35405;52.344;14.530;2022-07-29T16:01:20;100917.28;;;26.56;51.38
49055;BME280;35405;52.344;14.530;2022-07-29T16:03:45;100921.63;;;26.39;51.15
49055;BME280;35405;52.344;14.530;2022-07-29T16:06:11;100917.63;;;26.40;51.67
49055;BME280;35405;52.344;14.530;2022-07-29T16:08:36;100900.88;;;26.33;51.62
49055;BME280;35405;52.344;14.530;2022-07-29T16:11:02;100905.25;;;26.27;51.98
49055;BME280;35405;52.344;14.530;2022-07-29T16:13:27;100904.81;;;26.25;51.12
49055;BME280;35405;52.344;14.530;2022-07-29T16:15:52;100905.97;;;26.09;52.02
49055;BME280;35405;52.344;14.530;2022-07-29T16:18:17;100910.25;;;25.85;53.03
49055;BME280;35405;52.344;14.530;2022-07-29T16:20:43;100901.47;;;25.83;52.83
49055;BME280;35405;52.344;14.530;2022-07-29T16:23:08;100897.91;;;25.86;54.74
49055;BME280;35405;52.344;14.530;2022-07-29T16:25:35;100894.66;;;25.81;54.59
49055;BME280;35405;52.344;14.530;2022-07-29T16:28:00;100894.75;;;25.88;54.50
49055;BME280;35405;52.344;14.530;2022-07-29T16:30:25;100891.97;;;25.91;54.01
49055;BME280;35405;52.344;14.530;2022-07-29T16:32:51;100880.81;;;25.91;54.29
49055;BME280;35405;52.344;14.530;2022-07-29T16:35:16;100880.03;;;25.94;53.07
49055;BME280;35405;52.344;14.530;2022-07-29T16:37:41;100886.38;;;25.91;53.39
49055;BME280;35405;52.344;14.530;2022-07-29T16:40:07;100881.22;;;25.93;53.49
49055;BME280;35405;52.344;14.530;2022-07-29T16:42:32;100872.88;;;25.97;53.99
49055;BME280;35405;52.344;14.530;2022-07-29T16:44:58;100876.03;;;25.92;53.50
49055;BME280;35405;52.344;14.530;2022-07-29T16:47:23;100872.03;;;25.86;52.64
49055;BME280;35405;52.344;14.530;2022-07-29T16:49:48;100874.41;;;25.84;53.47
49055;BME280;35405;52.344;14.530;2022-07-29T16:52:14;100875.56;;;25.79;54.02
49055;BME280;35405;52.344;14.530;2022-07-29T16:54:39;100879.91;;;25.73;53.75
49055;BME280;35405;52.344;14.530;2022-07-29T16:57:05;100876.69;;;25.71;52.94
49055;BME280;35405;52.344;14.530;2022-07-29T16:59:30;100875.06;;;25.63;53.77
49055;BME280;35405;52.344;14.530;2022-07-29T17:01:56;100871.03;;;25.53;53.84
49055;BME280;35405;52.344;14.530;2022-07-29T17:04:21;100869.44;;;25.48;53.78
49055;BME280;35405;52.344;14.530;2022-07-29T17:06:47;100871.81;;;25.46;54.14
49055;BME280;35405;52.344;14.530;2022-07-29T17:09:13;100873.34;;;25.37;54.87
49055;BME280;35405;52.344;14.530;2022-07-29T17:11:39;100867.72;;;25.33;55.44
49055;BME280;35405;52.344;14.530;2022-07-29T17:14:05;100864.53;;;25.27;56.20
49055;BME280;35405;52.344;14.530;2022-07-29T17:16:31;100862.91;;;25.26;54.23
49055;BME280;35405;52.344;14.530;2022-07-29T17:19:06;100865.31;;;25.28;54.52
49055;BME280;35405;52.344;14.530;2022-07-29T17:21:31;100871.22;;;25.16;55.63
49055;BME280;35405;52.344;14.530;2022-07-29T17:23:56;100865.94;;;25.07;56.52
49055;BME280;35405;52.344;14.530;2022-07-29T17:26:23;100871.09;;;25.05;56.71
49055;BME280;35405;52.344;14.530;2022-07-29T17:28:48;100863.50;;;25.02;58.00
49055;BME280;35405;52.344;14.530;2022-07-29T17:31:13;100868.63;;;24.96;58.48
49055;BME280;35405;52.344;14.530;2022-07-29T17:33:39;100867.03;;;24.92;58.92
49055;BME280;35405;52.344;14.530;2022-07-29T17:36:04;100868.56;;;24.85;59.65
49055;BME280;35405;52.344;14.530;2022-07-29T17:38:47;100860.09;;;24.75;59.61
49055;BME280;35405;52.344;14.530;2022-07-29T17:41:13;100865.13;;;24.58;61.25
49055;BME280;35405;52.344;14.530;2022-07-29T17:43:38;100868.19;;;24.46;61.10
49055;BME280;35405;52.344;14.530;2022-07-29T17:46:03;100864.22;;;24.47;60.58
49055;BME280;35405;52.344;14.530;2022-07-29T17:48:29;100854.28;;;24.46;61.14
49055;BME280;35405;52.344;14.530;2022-07-29T17:50:54;100858.88;;;24.31;62.37
49055;BME280;35405;52.344;14.530;2022-07-29T17:53:20;100863.56;;;24.24;63.97
49055;BME280;35405;52.344;14.530;2022-07-29T17:55:45;100870.03;;;24.35;62.35
49055;BME280;35405;52.344;14.530;2022-07-29T17:58:12;100871.19;;;24.34;62.51
49055;BME280;35405;52.344;14.530;2022-07-29T18:00:38;100870.75;;;24.28;63.15
49055;BME280;35405;52.344;14.530;2022-07-29T18:03:03;100874.66;;;24.24;63.65
49055;BME280;35405;52.344;14.530;2022-07-29T18:05:28;100874.19;;;24.18;64.23
49055;BME280;35405;52.344;14.530;2022-07-29T18:07:54;100871.97;;;23.97;66.52
49055;BME280;35405;52.344;14.530;2022-07-29T18:10:22;100863.13;;;23.88;67.74
49055;BME280;35405;52.344;14.530;2022-07-29T18:12:48;100870.66;;;23.87;67.46
49055;BME280;35405;52.344;14.530;2022-07-29T18:15:13;100869.38;;;23.78;68.74
49055;BME280;35405;52.344;14.530;2022-07-29T18:17:39;100884.81;;;23.75;68.77
49055;BME280;35405;52.344;14.530;2022-07-29T18:20:04;100879.69;;;23.77;69.06
49055;BME280;35405;52.344;14.530;2022-07-29T18:22:30;100886.63;;;23.67;69.80
49055;BME280;35405;52.344;14.530;2022-07-29T18:24:55;100883.50;;;23.69;69.82